Baltica — SNGH — position and weather

sailwx.info

Track history (hours):
 
Tides and Currents Weather Stations Pressure Air Temp Water Temp Dewpoint Dewpoint Depression Visibility Wind Speed Wind Dir Waves Ship Positions

Oceanographic research ship Baltica (Poland)

Detailed information on ship capabilities available from University of Delaware's Ocean Information Center.

Last reported at 2020-Oct-01 11:30 UTC. Time now 2020-Oct-01 12:55 UTC.
Position N 54°31' E 018°33'.

Length 41 m; beam 9 m.

Type: Fishing. MMSI: 261061000.

Date/timePositionNaut miles runAvg speedWind from/ knotsBaromVisibWave heightAir tempDewpointWater temp
2020-Oct-01 11:30N 54°31' E 018°33'0 0.0
2020-Oct-01 10:00N 54°31' E 018°33'0 0.0
2020-Oct-01 08:00N 54°31' E 018°33'0 0.0
2020-Oct-01 05:30N 54°31' E 018°33'0 0.0
2020-Sep-30 22:30N 54°31' E 018°33'0 0.0
2020-Sep-30 21:30N 54°31' E 018°33'0 0.0
2020-Sep-30 15:00N 54°31' E 018°33'0 0.0
2020-Sep-30 13:00N 54°31' E 018°33'0 0.0
2020-Sep-30 10:00N 54°31' E 018°33'0 0.0
2020-Sep-30 06:00N 54°31' E 018°33'1 1.1
2020-Sep-30 05:30N 54°31' E 018°34'2 3.3
2020-Sep-30 05:00N 54°30' E 018°36'1 0.3
2020-Sep-30 03:00N 54°31' E 018°36'0 0.2
2020-Sep-30 02:30N 54°31' E 018°36'1 0.3
2020-Sep-29 23:30N 54°30' E 018°37'  
2020-Sep-26 14:36N 54°58' E 015°20'47 1.5
2020-Sep-25 08:30N 55°17' E 016°34'1 0.8
2020-Sep-25 07:24N 55°17' E 016°35'2 3.1
2020-Sep-25 06:37N 55°17' E 016°40'5 5.7
2020-Sep-25 05:48N 55°22' E 016°40'10 5.0
2020-Sep-25 03:46N 55°27' E 016°56'2 0.5
2020-Sep-25 00:30N 55°28' E 016°59'1 0.1
2020-Sep-24 17:00N 55°27' E 016°58'8 6.3
2020-Sep-24 15:41N 55°19' E 016°60'2 8.1
2020-Sep-24 15:29N 55°17' E 017°00'22 0.9
2020-Sep-23 15:00N 55°32' E 017°30'3 3.5
2020-Sep-23 14:00N 55°33' E 017°36'4 2.2
2020-Sep-23 12:00N 55°29' E 017°40'8 8.0
2020-Sep-23 11:01N 55°21' E 017°40'3 6.1
2020-Sep-23 10:30N 55°18' E 017°40'19 0.9
2020-Sep-22 12:00N 55°33' E 018°01'1 0.6
2020-Sep-22 11:00N 55°33' E 018°01'6 5.7
2020-Sep-22 10:00N 55°39' E 017°60'4 8.0
2020-Sep-22 09:31N 55°42' E 018°00'11 7.5
2020-Sep-22 08:00N 55°50' E 018°16'3 5.3
2020-Sep-22 07:30N 55°50' E 018°20'4 8.0
2020-Sep-22 07:00N 55°46' E 018°22'13 6.4
2020-Sep-22 05:00N 55°33' E 018°23'5 5.2
2020-Sep-22 04:00N 55°28' E 018°23'0 0.4
2020-Sep-22 03:30N 55°28' E 018°23'2 0.4
2020-Sep-21 23:00N 55°27' E 018°20'0 0.4
2020-Sep-21 22:00N 55°27' E 018°19'0 0.5
2020-Sep-21 21:30N 55°27' E 018°19'0 0.4
2020-Sep-21 20:30N 55°26' E 018°19'5 1.6
2020-Sep-21 17:30N 55°31' E 018°21'4 2.2
2020-Sep-21 15:45N 55°27' E 018°20'12 6.9
2020-Sep-21 14:00N 55°15' E 018°20'  
Track history (hours):
 
Tides and Currents Weather Stations Pressure Air Temp Water Temp Dewpoint Dewpoint Depression Visibility Wind Speed Wind Dir Waves Ship Positions

Oceanographic research ship Baltica (Poland)

Detailed information on ship capabilities available from University of Delaware's Ocean Information Center.

Last reported at 2020-Oct-01 11:30 UTC. Time now 2020-Oct-01 12:55 UTC.
Position N 54°31' E 018°33'.

Length 41 m; beam 9 m.

Type: Fishing. MMSI: 261061000.

Date/timePositionNaut miles runAvg speedWind from/ knotsBaromVisibWave heightAir tempDewpointWater temp
2020-Oct-01 11:30N 54°31' E 018°33'0 0.0
2020-Oct-01 10:00N 54°31' E 018°33'0 0.0
2020-Oct-01 08:00N 54°31' E 018°33'0 0.0
2020-Oct-01 05:30N 54°31' E 018°33'0 0.0
2020-Sep-30 22:30N 54°31' E 018°33'0 0.0
2020-Sep-30 21:30N 54°31' E 018°33'0 0.0
2020-Sep-30 15:00N 54°31' E 018°33'0 0.0
2020-Sep-30 13:00N 54°31' E 018°33'0 0.0
2020-Sep-30 10:00N 54°31' E 018°33'0 0.0
2020-Sep-30 06:00N 54°31' E 018°33'1 1.1
2020-Sep-30 05:30N 54°31' E 018°34'2 3.3
2020-Sep-30 05:00N 54°30' E 018°36'1 0.3
2020-Sep-30 03:00N 54°31' E 018°36'0 0.2
2020-Sep-30 02:30N 54°31' E 018°36'1 0.3
2020-Sep-29 23:30N 54°30' E 018°37'  
2020-Sep-26 14:36N 54°58' E 015°20'47 1.5
2020-Sep-25 08:30N 55°17' E 016°34'1 0.8
2020-Sep-25 07:24N 55°17' E 016°35'2 3.1
2020-Sep-25 06:37N 55°17' E 016°40'5 5.7
2020-Sep-25 05:48N 55°22' E 016°40'10 5.0
2020-Sep-25 03:46N 55°27' E 016°56'2 0.5
2020-Sep-25 00:30N 55°28' E 016°59'1 0.1
2020-Sep-24 17:00N 55°27' E 016°58'8 6.3
2020-Sep-24 15:41N 55°19' E 016°60'2 8.1
2020-Sep-24 15:29N 55°17' E 017°00'22 0.9
2020-Sep-23 15:00N 55°32' E 017°30'3 3.5
2020-Sep-23 14:00N 55°33' E 017°36'4 2.2
2020-Sep-23 12:00N 55°29' E 017°40'8 8.0
2020-Sep-23 11:01N 55°21' E 017°40'3 6.1
2020-Sep-23 10:30N 55°18' E 017°40'19 0.9
2020-Sep-22 12:00N 55°33' E 018°01'1 0.6
2020-Sep-22 11:00N 55°33' E 018°01'6 5.7
2020-Sep-22 10:00N 55°39' E 017°60'4 8.0
2020-Sep-22 09:31N 55°42' E 018°00'11 7.5
2020-Sep-22 08:00N 55°50' E 018°16'3 5.3
2020-Sep-22 07:30N 55°50' E 018°20'4 8.0
2020-Sep-22 07:00N 55°46' E 018°22'13 6.4
2020-Sep-22 05:00N 55°33' E 018°23'5 5.2
2020-Sep-22 04:00N 55°28' E 018°23'0 0.4
2020-Sep-22 03:30N 55°28' E 018°23'2 0.4
2020-Sep-21 23:00N 55°27' E 018°20'0 0.4
2020-Sep-21 22:00N 55°27' E 018°19'0 0.5
2020-Sep-21 21:30N 55°27' E 018°19'0 0.4
2020-Sep-21 20:30N 55°26' E 018°19'5 1.6
2020-Sep-21 17:30N 55°31' E 018°21'4 2.2
2020-Sep-21 15:45N 55°27' E 018°20'12 6.9
2020-Sep-21 14:00N 55°15' E 018°20'  

Dump ship's entire track history